createdAt,value
2018-03-08T00:02:22.735Z,87.80
2018-03-08T00:04:48.787Z,84.60
2018-03-08T00:07:14.938Z,63.50
2018-03-08T00:09:41.082Z,75.90
2018-03-08T00:12:07.195Z,86.10
2018-03-08T00:14:33.412Z,82.87
2018-03-08T00:16:59.467Z,75.30
2018-03-08T00:19:25.577Z,84.87
2018-03-08T00:21:51.633Z,83.33
2018-03-08T00:24:17.672Z,91.47
2018-03-08T00:26:43.899Z,83.47
2018-03-08T00:29:09.993Z,85.97
2018-03-08T00:31:36.020Z,86.47
2018-03-08T00:34:02.088Z,84.87
2018-03-08T00:36:28.157Z,87.27
2018-03-08T00:38:54.202Z,92.30
2018-03-08T00:41:20.284Z,90.07
2018-03-08T00:43:46.314Z,80.33
2018-03-08T00:46:12.407Z,81.67
2018-03-08T00:48:38.654Z,87.10
2018-03-08T00:51:04.710Z,80.27
2018-03-08T00:53:30.776Z,84.37
2018-03-08T00:55:56.809Z,87.40
2018-03-08T00:58:22.871Z,84.70
2018-03-08T01:00:48.988Z,86.13
2018-03-08T01:03:15.104Z,84.20
2018-03-08T01:05:41.179Z,82.63
2018-03-08T01:08:07.255Z,81.87
2018-03-08T01:10:33.399Z,85.47
2018-03-08T01:12:59.494Z,75.67
2018-03-08T01:15:25.580Z,82.67
2018-03-08T01:17:51.927Z,81.33
2018-03-08T01:20:18.037Z,77.57
2018-03-08T01:22:44.101Z,78.40
2018-03-08T01:25:10.165Z,72.23
2018-03-08T01:27:36.255Z,54.17
2018-03-08T01:30:02.305Z,67.07
2018-03-08T01:32:28.334Z,57.07
2018-03-08T01:34:54.373Z,47.00
2018-03-08T01:40:13.579Z,33.13
2018-03-08T01:42:39.659Z,38.47
2018-03-08T01:45:05.739Z,29.47
2018-03-08T01:47:31.744Z,33.53
2018-03-08T01:49:57.803Z,30.97
2018-03-08T01:52:23.857Z,34.37
2018-03-08T01:54:50.061Z,27.30
2018-03-08T01:57:16.128Z,30.23
2018-03-08T01:59:42.223Z,27.80
2018-03-08T02:02:08.307Z,25.73
2018-03-08T02:04:34.336Z,24.97
2018-03-08T02:07:00.403Z,21.17
2018-03-08T02:09:26.477Z,19.83
2018-03-08T02:11:52.559Z,17.30
2018-03-08T02:14:18.708Z,15.93
2018-03-08T02:16:45.460Z,16.80
2018-03-08T02:19:11.508Z,16.67
2018-03-08T02:21:37.538Z,15.23
2018-03-08T02:24:04.020Z,14.13
2018-03-08T02:26:30.099Z,15.07
2018-03-08T02:28:56.205Z,13.00
2018-03-08T02:31:22.306Z,10.70
2018-03-08T02:33:48.360Z,11.77
2018-03-08T02:36:14.392Z,13.80
2018-03-08T02:38:40.453Z,15.13
2018-03-08T02:41:06.554Z,14.77
2018-03-08T02:43:32.612Z,16.33
2018-03-08T02:45:58.739Z,13.70
2018-03-08T02:48:24.804Z,14.23
2018-03-08T02:50:50.874Z,14.33
2018-03-08T02:53:16.984Z,13.73
2018-03-08T02:55:43.065Z,11.77
2018-03-08T02:58:09.121Z,13.20
2018-03-08T03:00:35.235Z,12.60
2018-03-08T03:03:01.278Z,12.43
2018-03-08T03:05:27.356Z,12.17
2018-03-08T03:07:53.475Z,11.27
2018-03-08T03:10:19.504Z,12.33
2018-03-08T03:12:45.954Z,12.40
2018-03-08T03:15:12.011Z,13.10
2018-03-08T03:17:38.043Z,12.30
2018-03-08T03:20:04.093Z,12.00
2018-03-08T03:22:30.817Z,12.23
2018-03-08T03:24:56.892Z,13.10
2018-03-08T03:27:22.920Z,13.73
2018-03-08T03:29:48.965Z,13.47
2018-03-08T03:32:14.997Z,13.33
2018-03-08T03:34:41.113Z,14.13
2018-03-08T03:37:07.172Z,12.17
2018-03-08T03:39:33.224Z,12.97
2018-03-08T03:41:59.498Z,12.30
2018-03-08T03:44:25.549Z,12.40
2018-03-08T03:46:51.584Z,12.87
2018-03-08T03:49:17.641Z,13.63
2018-03-08T03:51:43.703Z,13.40
2018-03-08T03:54:09.769Z,11.80
2018-03-08T03:56:35.848Z,13.20
2018-03-08T03:59:01.905Z,14.20
2018-03-08T04:01:27.968Z,13.80
2018-03-08T04:03:54.497Z,14.63
2018-03-08T04:06:20.582Z,12.57
2018-03-08T04:08:46.611Z,13.30
2018-03-08T04:11:13.317Z,15.57
2018-03-08T04:13:39.375Z,14.97
2018-03-08T04:16:05.467Z,14.27
2018-03-08T04:18:31.469Z,14.80
2018-03-08T04:20:57.515Z,15.50
2018-03-08T04:23:23.585Z,16.63
2018-03-08T04:25:49.736Z,14.57
2018-03-08T04:28:15.788Z,17.03
2018-03-08T04:30:41.844Z,17.00
2018-03-08T04:33:07.928Z,16.87
2018-03-08T04:35:33.980Z,17.67
2018-03-08T04:38:00.136Z,16.17
2018-03-08T04:40:26.187Z,15.73
2018-03-08T04:42:52.474Z,15.00
2018-03-08T04:45:18.534Z,15.80
2018-03-08T04:47:44.580Z,16.10
2018-03-08T04:50:10.763Z,16.10
2018-03-08T04:52:37.207Z,14.77
2018-03-08T04:55:03.304Z,12.53
2018-03-08T04:57:29.338Z,12.20
2018-03-08T04:59:55.397Z,11.13
2018-03-08T05:02:22.583Z,10.63
2018-03-08T05:04:48.671Z,8.53
2018-03-08T05:07:14.843Z,9.60
2018-03-08T05:09:40.965Z,10.93
2018-03-08T05:12:07.066Z,11.30
2018-03-08T05:14:33.126Z,10.23
2018-03-08T05:16:59.232Z,10.17
2018-03-08T05:19:25.272Z,10.37
2018-03-08T05:21:51.335Z,11.73
2018-03-08T05:24:17.380Z,12.53
2018-03-08T05:26:43.450Z,10.50
2018-03-08T05:29:09.507Z,12.77
2018-03-08T05:31:35.584Z,11.80
2018-03-08T05:34:01.650Z,13.03
2018-03-08T05:36:27.734Z,12.77
2018-03-08T05:38:53.900Z,13.57
2018-03-08T05:41:19.951Z,12.50
2018-03-08T05:43:46.004Z,15.00
2018-03-08T05:46:12.042Z,14.13
2018-03-08T05:48:38.162Z,15.10
2018-03-08T05:51:04.330Z,11.43
2018-03-08T05:53:30.417Z,10.47
2018-03-08T05:55:56.482Z,9.40
2018-03-08T05:58:22.543Z,10.83
2018-03-08T06:00:48.645Z,10.83
2018-03-08T06:03:14.778Z,10.97
2018-03-08T06:05:40.854Z,10.77
2018-03-08T06:08:06.975Z,13.07
2018-03-08T06:10:33.063Z,13.63
2018-03-08T06:12:59.125Z,11.27
2018-03-08T06:15:25.182Z,11.77
2018-03-08T06:17:51.260Z,17.93
2018-03-08T06:20:17.316Z,10.40
2018-03-08T06:22:43.393Z,18.73
2018-03-08T06:25:09.459Z,21.73
2018-03-08T06:27:35.526Z,22.83
2018-03-08T06:30:01.982Z,23.07
2018-03-08T06:32:28.082Z,20.97
2018-03-08T06:34:54.204Z,22.67
2018-03-08T06:37:20.337Z,21.50
2018-03-08T06:39:46.399Z,22.70
2018-03-08T06:42:12.644Z,27.87
2018-03-08T06:44:38.732Z,24.73
2018-03-08T06:47:04.825Z,24.23
2018-03-08T06:49:30.911Z,24.87
2018-03-08T06:51:57.010Z,26.20
2018-03-08T06:54:23.101Z,29.37
2018-03-08T06:56:49.173Z,26.77
2018-03-08T06:59:15.235Z,29.27
2018-03-08T07:01:41.313Z,21.80
2018-03-08T07:04:07.372Z,28.00
2018-03-08T07:06:33.434Z,32.47
2018-03-08T07:08:59.486Z,26.80
2018-03-08T07:11:25.584Z,33.87
2018-03-08T07:13:51.670Z,38.13
2018-03-08T07:16:17.726Z,35.27
2018-03-08T07:18:43.790Z,39.57
2018-03-08T07:21:09.863Z,44.50
2018-03-08T07:23:35.919Z,43.13
2018-03-08T07:26:02.020Z,41.57
2018-03-08T07:28:28.145Z,43.80
2018-03-08T07:30:54.164Z,52.30
2018-03-08T07:33:20.205Z,47.83
2018-03-08T07:35:46.306Z,43.57
2018-03-08T07:38:12.383Z,38.60
2018-03-08T07:40:38.446Z,41.30
2018-03-08T07:43:04.623Z,41.47
2018-03-08T07:45:30.755Z,42.00
2018-03-08T07:47:56.809Z,42.27
2018-03-08T07:50:22.903Z,39.37
2018-03-08T07:52:48.985Z,40.07
2018-03-08T07:55:15.096Z,40.17
2018-03-08T07:57:41.164Z,40.20
2018-03-08T08:00:07.214Z,34.40
2018-03-08T08:02:33.305Z,37.73
2018-03-08T08:08:11.799Z,40.43
2018-03-08T08:10:37.859Z,42.10
2018-03-08T08:13:04.257Z,41.77
2018-03-08T08:15:30.318Z,42.47
2018-03-08T08:17:56.364Z,43.00
2018-03-08T08:20:22.455Z,42.00
2018-03-08T08:22:48.666Z,38.63
2018-03-08T08:25:14.708Z,43.03
2018-03-08T08:27:40.972Z,43.13
2018-03-08T08:30:07.038Z,42.83
2018-03-08T08:32:33.073Z,40.83
2018-03-08T08:34:59.130Z,42.00
2018-03-08T08:37:25.161Z,41.13
2018-03-08T08:39:51.317Z,40.17
2018-03-08T08:42:17.387Z,39.20
2018-03-08T08:44:43.442Z,40.53
2018-03-08T08:47:09.534Z,40.27
2018-03-08T08:49:35.703Z,39.83
2018-03-08T08:52:01.718Z,37.33
2018-03-08T08:54:27.743Z,37.33
2018-03-08T08:56:53.954Z,36.47
2018-03-08T08:59:20.005Z,34.07
2018-03-08T09:01:46.072Z,32.00
2018-03-08T09:04:12.133Z,31.87
2018-03-08T09:06:38.200Z,28.17
2018-03-08T09:09:04.488Z,27.43
2018-03-08T09:11:30.601Z,27.30
2018-03-08T09:13:56.654Z,23.43
2018-03-08T09:16:22.752Z,23.37
2018-03-08T09:18:48.942Z,22.17
2018-03-08T09:21:14.972Z,22.07
2018-03-08T09:23:41.059Z,21.47
2018-03-08T09:26:07.130Z,22.57
2018-03-08T09:28:33.215Z,17.07
2018-03-08T09:30:59.381Z,18.33
2018-03-08T09:33:25.431Z,18.90
2018-03-08T09:35:51.703Z,17.13
2018-03-08T09:38:17.772Z,17.37
2018-03-08T09:40:43.855Z,18.27
2018-03-08T09:43:09.906Z,17.60
2018-03-08T09:45:36.093Z,17.77
2018-03-08T09:48:02.195Z,16.90
2018-03-08T09:50:28.230Z,16.63
2018-03-08T09:52:54.437Z,19.63
2018-03-08T09:55:20.670Z,15.67
2018-03-08T09:57:46.780Z,17.77
2018-03-08T10:00:12.858Z,15.67
2018-03-08T10:02:38.970Z,17.70
2018-03-08T10:05:05.169Z,14.90
2018-03-08T10:07:31.208Z,10.90
2018-03-08T10:09:57.314Z,11.27
2018-03-08T10:12:23.366Z,12.97
2018-03-08T10:14:49.625Z,15.23
2018-03-08T10:17:15.698Z,14.37
2018-03-08T10:19:41.748Z,11.77
2018-03-08T10:22:07.924Z,11.20
2018-03-08T10:24:33.968Z,9.87
2018-03-08T10:27:00.033Z,10.63
2018-03-08T10:29:26.075Z,11.20
2018-03-08T10:31:52.152Z,10.33
2018-03-08T10:34:18.153Z,8.03
2018-03-08T10:36:44.276Z,11.17
2018-03-08T10:44:02.643Z,8.70
2018-03-08T10:46:28.851Z,7.97
2018-03-08T10:51:21.065Z,6.70
2018-03-08T10:53:47.250Z,6.93
2018-03-08T10:56:13.300Z,7.53
2018-03-08T10:58:39.328Z,11.10
2018-03-08T11:01:05.597Z,7.17
2018-03-08T11:03:47.762Z,9.20
2018-03-08T11:06:19.816Z,7.20
2018-03-08T11:08:45.864Z,8.70
2018-03-08T11:11:12.055Z,9.33
2018-03-08T11:13:38.124Z,7.63
2018-03-08T11:16:04.189Z,7.57
2018-03-08T11:18:30.350Z,6.77
2018-03-08T11:20:56.420Z,8.70
2018-03-08T11:23:22.521Z,5.27
2018-03-08T11:25:48.588Z,7.83
2018-03-08T11:28:14.652Z,9.97
2018-03-08T11:30:40.746Z,9.17
2018-03-08T11:33:06.784Z,5.50
2018-03-08T11:35:32.959Z,6.03
2018-03-08T11:37:59.190Z,5.87
2018-03-08T11:40:25.249Z,7.23
2018-03-08T11:42:51.545Z,6.53
2018-03-08T11:45:17.624Z,8.20
2018-03-08T11:47:43.722Z,8.77
2018-03-08T11:50:09.872Z,5.90
2018-03-08T11:52:35.958Z,7.13
2018-03-08T11:55:02.032Z,5.20
2018-03-08T11:57:28.180Z,5.40
2018-03-08T11:59:54.243Z,8.53
2018-03-08T12:02:20.297Z,6.40
2018-03-08T12:04:46.430Z,5.90
2018-03-08T12:07:12.510Z,5.57
2018-03-08T12:09:38.557Z,4.83
2018-03-08T12:12:04.660Z,4.40
2018-03-08T12:14:30.772Z,5.43
2018-03-08T12:16:56.935Z,5.37
2018-03-08T12:19:22.976Z,4.97
2018-03-08T12:21:49.240Z,3.43
2018-03-08T12:24:15.317Z,4.47
2018-03-08T12:26:41.387Z,3.40
2018-03-08T12:29:07.530Z,5.40
2018-03-08T12:31:33.625Z,3.97
2018-03-08T12:33:59.690Z,4.57
2018-03-08T12:36:25.781Z,5.83
2018-03-08T12:38:51.843Z,3.50
2018-03-08T12:41:17.980Z,3.47
2018-03-08T12:43:44.046Z,4.57
2018-03-08T12:46:10.147Z,4.07
2018-03-08T12:48:36.310Z,3.37
2018-03-08T12:51:02.363Z,3.90
2018-03-08T12:53:28.403Z,3.73
2018-03-08T12:55:54.438Z,4.40
2018-03-08T12:58:20.691Z,4.73
2018-03-08T13:00:47.038Z,4.07
2018-03-08T13:03:13.126Z,4.50
2018-03-08T13:05:39.184Z,5.03
2018-03-08T13:08:05.307Z,4.10
2018-03-08T13:10:31.407Z,4.70
2018-03-08T13:12:58.871Z,4.53
2018-03-08T13:15:25.183Z,4.80
2018-03-08T13:17:51.260Z,5.67
2018-03-08T13:20:17.353Z,3.70
2018-03-08T13:22:43.462Z,5.40
2018-03-08T13:25:09.727Z,5.67
2018-03-08T13:27:35.790Z,4.97
2018-03-08T13:30:02.748Z,4.20
2018-03-08T13:32:29.004Z,4.50
2018-03-08T13:34:55.119Z,5.17
2018-03-08T13:37:21.255Z,5.30
2018-03-08T13:39:47.535Z,4.80
2018-03-08T13:42:13.654Z,7.00
2018-03-08T13:44:39.706Z,5.37
2018-03-08T13:47:06.236Z,5.30
2018-03-08T13:49:36.324Z,4.97
2018-03-08T13:52:02.408Z,5.50
2018-03-08T13:54:28.470Z,7.40
2018-03-08T13:56:54.516Z,5.50
2018-03-08T13:59:20.605Z,5.00
2018-03-08T14:01:46.716Z,4.97
2018-03-08T14:04:12.767Z,5.13
2018-03-08T14:06:38.899Z,6.13
2018-03-08T14:09:06.228Z,5.37
2018-03-08T14:11:33.822Z,8.07
2018-03-08T14:14:00.557Z,5.53
2018-03-08T14:16:27.572Z,5.20
2018-03-08T14:18:53.642Z,6.63
2018-03-08T14:21:19.695Z,5.67
2018-03-08T14:23:45.916Z,6.83
2018-03-08T14:26:11.963Z,7.47
2018-03-08T14:28:38.879Z,5.13
2018-03-08T14:31:04.914Z,5.17
2018-03-08T14:33:31.906Z,4.30
2018-03-08T14:35:58.540Z,5.27
2018-03-08T14:38:24.720Z,4.27
2018-03-08T14:40:50.873Z,5.40
2018-03-08T14:43:16.920Z,4.37
2018-03-08T14:45:42.996Z,5.77
2018-03-08T14:48:09.083Z,4.20
2018-03-08T14:50:35.267Z,3.90
2018-03-08T14:53:01.373Z,4.03
2018-03-08T14:55:27.473Z,3.77
2018-03-08T14:57:53.575Z,4.80
2018-03-08T15:00:19.847Z,5.27
2018-03-08T15:02:45.980Z,3.77
2018-03-08T15:05:12.172Z,4.03
2018-03-08T15:07:38.373Z,3.53
2018-03-08T15:10:04.432Z,3.50
2018-03-08T15:12:30.772Z,4.43
2018-03-08T15:14:56.835Z,4.67
2018-03-08T15:17:23.133Z,5.30
2018-03-08T15:19:49.223Z,5.70
2018-03-08T15:22:15.327Z,4.43
2018-03-08T15:24:41.513Z,4.00
2018-03-08T15:27:07.692Z,6.70
2018-03-08T15:29:33.943Z,4.30
2018-03-08T15:32:00.057Z,6.60
2018-03-08T15:34:26.111Z,6.97
2018-03-08T15:36:52.213Z,6.67
2018-03-08T15:39:18.288Z,5.77
2018-03-08T15:41:45.295Z,6.40
2018-03-08T15:44:11.407Z,7.30
2018-03-08T15:46:38.062Z,8.37
2018-03-08T15:49:05.102Z,5.03
2018-03-08T15:51:31.178Z,4.90
2018-03-08T15:53:57.247Z,6.27
2018-03-08T15:56:23.391Z,5.80
2018-03-08T15:58:49.541Z,6.27
2018-03-08T16:01:15.811Z,7.33
2018-03-08T16:03:41.843Z,5.33
2018-03-08T16:06:08.518Z,6.00
2018-03-08T16:08:46.991Z,5.53
2018-03-08T16:11:13.015Z,4.90
2018-03-08T16:13:39.795Z,4.40
2018-03-08T16:16:05.914Z,6.13
2018-03-08T16:18:31.955Z,6.73
2018-03-08T16:20:58.035Z,5.67
2018-03-08T16:23:24.114Z,5.80
2018-03-08T16:25:50.165Z,5.57
2018-03-08T16:28:16.240Z,6.37
2018-03-08T16:30:42.322Z,5.00
2018-03-08T16:33:08.598Z,4.90
2018-03-08T16:35:34.790Z,4.83
2018-03-08T16:38:00.921Z,4.83
2018-03-08T16:40:27.168Z,4.87
2018-03-08T16:42:53.227Z,5.83
2018-03-08T16:45:19.415Z,6.23
2018-03-08T16:47:45.546Z,5.57
2018-03-08T16:50:11.600Z,5.30
2018-03-08T16:52:37.759Z,5.23
2018-03-08T16:55:03.864Z,5.47
2018-03-08T16:57:30.081Z,6.93
2018-03-08T16:59:56.127Z,5.20
2018-03-08T17:02:22.150Z,6.17
2018-03-08T17:04:48.336Z,5.10
2018-03-08T17:07:14.533Z,8.83
2018-03-08T17:09:40.602Z,4.63
2018-03-08T17:12:06.685Z,4.23
2018-03-08T17:14:32.995Z,5.17
2018-03-08T17:16:59.048Z,7.73
2018-03-08T17:19:25.288Z,4.97
2018-03-08T17:21:51.418Z,6.50
2018-03-08T17:24:18.516Z,4.73
2018-03-08T17:26:44.577Z,6.77
2018-03-08T17:29:10.756Z,4.50
2018-03-08T17:31:36.817Z,5.33
2018-03-08T17:34:05.107Z,4.87
2018-03-08T17:36:31.227Z,6.50
2018-03-08T17:38:57.314Z,4.60
2018-03-08T17:41:23.543Z,4.23
2018-03-08T17:43:49.695Z,5.13
2018-03-08T17:46:15.813Z,4.50
2018-03-08T17:48:41.910Z,4.83
2018-03-08T17:51:08.042Z,6.70
2018-03-08T17:53:35.037Z,4.80
2018-03-08T17:56:01.170Z,6.23
2018-03-08T17:58:27.391Z,5.13
2018-03-08T18:00:53.535Z,5.53
2018-03-08T18:03:19.653Z,5.03
2018-03-08T18:05:45.730Z,5.87
2018-03-08T18:08:11.829Z,4.87
2018-03-08T18:10:37.978Z,4.73
2018-03-08T18:13:04.579Z,4.97
2018-03-08T18:15:30.666Z,5.30
2018-03-08T18:17:57.486Z,5.10
2018-03-08T18:20:23.558Z,5.73
2018-03-08T18:22:49.662Z,4.43
2018-03-08T18:25:15.856Z,5.67
2018-03-08T18:27:41.939Z,4.93
2018-03-08T18:30:08.376Z,5.67
2018-03-08T18:32:34.494Z,5.47
2018-03-08T18:35:00.609Z,5.60
2018-03-08T18:37:27.543Z,5.07
2018-03-08T18:39:55.056Z,5.00
2018-03-08T18:42:21.156Z,4.43
2018-03-08T18:44:47.338Z,5.30
2018-03-08T18:47:13.495Z,5.37
2018-03-08T18:49:39.628Z,3.77
2018-03-08T18:52:05.904Z,6.37
2018-03-08T18:54:33.017Z,7.57
2018-03-08T18:56:59.455Z,5.80
2018-03-08T18:59:25.614Z,3.60
2018-03-08T19:01:51.775Z,5.97
2018-03-08T19:04:17.846Z,4.67
2018-03-08T19:06:44.246Z,7.97
2018-03-08T19:09:11.101Z,4.03
2018-03-08T19:11:37.261Z,5.23
2018-03-08T19:14:03.454Z,4.73
2018-03-08T19:16:29.636Z,5.97
2018-03-08T19:18:55.733Z,4.60
2018-03-08T19:21:22.011Z,6.67
2018-03-08T19:23:48.098Z,5.10
2018-03-08T19:26:14.588Z,5.63
2018-03-08T19:28:40.740Z,16.43
2018-03-08T19:31:06.974Z,3.73
2018-03-08T19:33:33.411Z,3.93
2018-03-08T19:36:00.438Z,3.10
2018-03-08T19:38:27.090Z,3.87
2018-03-08T19:40:53.259Z,2.80
2018-03-08T19:43:19.803Z,2.90
2018-03-08T19:45:51.453Z,3.20
2018-03-08T19:48:17.679Z,3.10
2018-03-08T19:50:44.474Z,2.80
2018-03-08T19:53:10.729Z,2.30
2018-03-08T19:55:36.851Z,2.70
2018-03-08T19:58:02.993Z,3.30
2018-03-08T20:00:29.216Z,1.93
2018-03-08T20:02:56.325Z,2.07
2018-03-08T20:05:22.556Z,1.90
2018-03-08T20:07:48.783Z,2.07
2018-03-08T20:10:15.992Z,1.87
2018-03-08T20:12:43.260Z,2.27
2018-03-08T20:15:09.576Z,1.97
2018-03-08T20:17:35.631Z,2.20
2018-03-08T20:20:01.984Z,1.93
2018-03-08T20:22:28.177Z,2.93
2018-03-08T20:24:54.341Z,2.50
2018-03-08T20:27:20.509Z,1.67
2018-03-08T20:29:47.247Z,1.80
2018-03-08T20:32:13.425Z,1.63
2018-03-08T20:34:39.645Z,1.80
2018-03-08T20:37:05.887Z,1.73
2018-03-08T20:39:32.042Z,1.57
2018-03-08T20:41:58.224Z,3.27
2018-03-08T20:44:24.320Z,2.03
2018-03-08T20:46:50.446Z,2.47
2018-03-08T20:49:16.830Z,1.90
2018-03-08T20:51:43.049Z,2.13
2018-03-08T20:54:09.383Z,2.87
2018-03-08T20:56:35.530Z,3.17
2018-03-08T20:59:01.684Z,2.00
2018-03-08T21:01:27.782Z,2.40
2018-03-08T21:03:53.941Z,2.70
2018-03-08T21:06:20.048Z,2.90
2018-03-08T21:08:46.178Z,3.00
2018-03-08T21:11:13.215Z,2.10
2018-03-08T21:13:39.438Z,1.83
2018-03-08T21:16:05.701Z,2.27
2018-03-08T21:18:31.913Z,2.10
2018-03-08T21:20:57.993Z,2.67
2018-03-08T21:23:38.995Z,3.50
2018-03-08T21:26:05.071Z,1.53
2018-03-08T21:28:32.178Z,2.60
2018-03-08T21:30:58.210Z,2.53
2018-03-08T21:33:24.306Z,2.70
2018-03-08T21:35:50.405Z,1.90
2018-03-08T21:38:16.482Z,2.60
2018-03-08T21:40:42.830Z,2.07
2018-03-08T21:43:09.091Z,2.10
2018-03-08T21:45:35.195Z,2.70
2018-03-08T21:48:01.303Z,2.90
2018-03-08T21:50:27.402Z,4.67
2018-03-08T21:52:53.442Z,3.47
2018-03-08T21:55:19.522Z,3.37
2018-03-08T21:57:45.592Z,3.80
2018-03-08T22:00:11.715Z,3.90
2018-03-08T22:02:37.908Z,3.87
2018-03-08T22:05:03.970Z,4.93
2018-03-08T22:07:30.087Z,4.33
2018-03-08T22:09:56.171Z,3.87
2018-03-08T22:12:22.294Z,4.07
2018-03-08T22:14:48.415Z,3.70
2018-03-08T22:17:14.532Z,4.30
2018-03-08T22:19:40.616Z,3.67
2018-03-08T22:22:06.790Z,4.50
2018-03-08T22:24:32.906Z,4.60
2018-03-08T22:26:58.995Z,4.73
2018-03-08T22:29:25.229Z,4.80
2018-03-08T22:31:51.433Z,5.17
2018-03-08T22:34:17.506Z,5.13
2018-03-08T22:36:43.597Z,5.97
2018-03-08T22:39:09.979Z,4.60
2018-03-08T22:41:36.660Z,5.53
2018-03-08T22:44:03.526Z,6.13
2018-03-08T22:46:29.693Z,6.13
2018-03-08T22:48:55.742Z,6.03
2018-03-08T22:51:21.886Z,6.47
2018-03-08T22:53:47.952Z,6.17
2018-03-08T22:56:13.963Z,5.37
2018-03-08T22:58:40.055Z,6.77
2018-03-08T23:01:06.260Z,6.77
2018-03-08T23:03:32.339Z,6.80
2018-03-08T23:05:58.428Z,6.47
2018-03-08T23:08:24.494Z,8.47
2018-03-08T23:10:50.542Z,6.50
2018-03-08T23:13:16.622Z,7.80
2018-03-08T23:15:42.703Z,8.03
2018-03-08T23:18:08.858Z,7.47
2018-03-08T23:20:34.909Z,7.87
2018-03-08T23:23:00.956Z,8.23
2018-03-08T23:25:26.997Z,7.57
2018-03-08T23:27:53.100Z,7.87
2018-03-08T23:30:19.176Z,7.30
2018-03-08T23:32:45.234Z,7.23
2018-03-08T23:35:11.322Z,7.93
2018-03-08T23:37:37.363Z,7.83
2018-03-08T23:40:03.457Z,7.63
2018-03-08T23:42:29.529Z,7.90
2018-03-08T23:44:55.633Z,9.27
2018-03-08T23:47:21.687Z,7.80
2018-03-08T23:49:47.762Z,10.23
2018-03-08T23:52:13.858Z,8.90
2018-03-08T23:54:39.925Z,8.87
2018-03-08T23:57:06.211Z,9.20
2018-03-08T23:59:32.236Z,9.30
